Time;durP1;ratioP1;P1;durP2;ratioP2;P2;SDS_P1;SDS_P2;PMS_P1;PMS_P2;Temp;Humidity;BMP_temperature;BMP_pressure;BME280_temperature;BME280_humidity;BME280_pressure;Samples;Min_cycle;Max_cycle;Signal;HPM_P1;HPM_P2
2023/01/26 00:01:15;;;;;;;35.97;23.77;;;;;;;1.04;100.00;98663.13;5054396;28;20252;-72
2023/01/26 00:03:42;;;;;;;37.77;24.57;;;;;;;1.04;100.00;98657.88;5054084;28;20193;-72
2023/01/26 00:06:11;;;;;;;37.40;22.63;;;;;;;0.97;100.00;98651.59;5054339;28;20212;-72
2023/01/26 00:08:38;;;;;;;41.27;25.77;;;;;;;1.03;100.00;98658.06;5054971;28;20208;-72
2023/01/26 00:11:06;;;;;;;40.43;26.03;;;;;;;0.94;100.00;98656.28;5053740;28;20201;-73
2023/01/26 00:13:34;;;;;;;40.90;25.07;;;;;;;0.96;100.00;98643.88;5053833;28;20213;-72
2023/01/26 00:16:01;;;;;;;38.70;24.97;;;;;;;0.89;100.00;98638.41;5054032;28;20201;-72
2023/01/26 00:18:28;;;;;;;35.60;24.67;;;;;;;0.89;100.00;98632.34;5054026;28;20205;-72
2023/01/26 00:20:58;;;;;;;39.60;24.13;;;;;;;0.94;100.00;98624.88;5054084;28;20232;-72
2023/01/26 00:23:25;;;;;;;39.50;23.53;;;;;;;0.88;100.00;98622.81;5053732;28;20690;-72
2023/01/26 00:25:52;;;;;;;40.83;26.17;;;;;;;0.74;100.00;98615.44;5054027;28;20209;-72
2023/01/26 00:28:18;;;;;;;46.23;26.03;;;;;;;0.80;100.00;98618.31;5053923;28;20209;-72
2023/01/26 00:30:45;;;;;;;37.93;23.37;;;;;;;0.70;100.00;98617.53;5053960;28;20201;-72
2023/01/26 00:33:11;;;;;;;38.07;23.87;;;;;;;0.63;100.00;98605.19;5053547;28;20712;-72
2023/01/26 00:35:37;;;;;;;42.73;24.97;;;;;;;0.74;100.00;98618.06;5053907;28;20205;-72
2023/01/26 00:38:05;;;;;;;40.43;25.23;;;;;;;0.63;100.00;98599.94;5053850;28;20552;-72
2023/01/26 00:40:31;;;;;;;41.53;25.20;;;;;;;0.75;100.00;98604.00;5053654;28;20319;-72
2023/01/26 00:42:58;;;;;;;41.37;24.70;;;;;;;0.79;100.00;98597.53;5053605;28;20221;-72
2023/01/26 00:45:24;;;;;;;37.63;23.67;;;;;;;0.77;100.00;98592.44;5053596;28;20209;-72
2023/01/26 00:47:50;;;;;;;38.10;24.43;;;;;;;0.65;100.00;98592.75;5053446;28;20209;-72
2023/01/26 00:50:17;;;;;;;43.97;25.43;;;;;;;0.76;100.00;98595.22;5053557;28;20201;-72
2023/01/26 00:52:43;;;;;;;38.93;24.40;;;;;;;0.78;100.00;98593.25;5053182;28;20233;-72
2023/01/26 00:55:10;;;;;;;38.60;25.37;;;;;;;0.81;100.00;98587.75;5053747;28;20209;-72
2023/01/26 00:57:36;;;;;;;39.37;25.00;;;;;;;0.75;100.00;98585.69;5053549;28;20212;-72
2023/01/26 01:00:03;;;;;;;39.87;24.93;;;;;;;0.72;100.00;98584.19;5053184;28;20227;-72
2023/01/26 01:02:29;;;;;;;37.10;25.13;;;;;;;0.76;100.00;98576.91;5053080;28;20711;-72
2023/01/26 01:04:55;;;;;;;42.93;26.50;;;;;;;0.76;100.00;98585.56;5053344;28;20553;-72
2023/01/26 01:07:22;;;;;;;39.60;25.87;;;;;;;0.76;100.00;98584.75;5053386;28;20587;-72
2023/01/26 01:09:48;;;;;;;39.17;25.60;;;;;;;0.80;100.00;98588.72;5053332;28;20197;-73
2023/01/26 01:12:14;;;;;;;37.03;23.67;;;;;;;0.91;100.00;98583.28;5053161;28;20239;-72
2023/01/26 01:14:41;;;;;;;38.63;25.00;;;;;;;0.86;100.00;98588.13;5053920;28;20198;-72
2023/01/26 01:17:07;;;;;;;37.83;23.80;;;;;;;0.95;100.00;98584.66;5057210;28;20668;-72
2023/01/26 01:19:33;;;;;;;39.73;23.90;;;;;;;0.83;100.00;98581.41;5057424;28;20225;-72
2023/01/26 01:22:00;;;;;;;38.03;23.67;;;;;;;0.66;100.00;98581.31;5057407;28;20220;-72
2023/01/26 01:24:26;;;;;;;39.77;24.47;;;;;;;0.68;100.00;98587.25;5057456;28;20212;-72
2023/01/26 01:26:53;;;;;;;41.60;25.67;;;;;;;0.68;100.00;98588.09;5057335;28;20201;-72
2023/01/26 01:29:19;;;;;;;37.13;23.27;;;;;;;0.91;100.00;98581.50;5057383;28;20205;-72
2023/01/26 01:31:45;;;;;;;38.10;23.47;;;;;;;0.72;100.00;98584.19;5056879;28;20236;-72
2023/01/26 01:34:12;;;;;;;33.33;21.13;;;;;;;0.81;100.00;98578.09;5057162;28;20205;-72
2023/01/26 01:36:38;;;;;;;35.40;22.67;;;;;;;0.79;100.00;98574.81;5056903;28;20220;-72
2023/01/26 01:39:04;;;;;;;35.93;23.70;;;;;;;0.78;100.00;98572.34;5056856;28;20688;-72
2023/01/26 01:41:31;;;;;;;39.67;24.33;;;;;;;0.78;100.00;98570.53;5057182;28;20240;-72
2023/01/26 01:44:12;;;;;;;37.63;24.33;;;;;;;0.76;100.00;98575.09;5057132;28;20205;-72
2023/01/26 01:46:41;;;;;;;41.17;23.57;;;;;;;0.71;100.00;98566.03;5056860;28;20201;-72
2023/01/26 01:49:22;;;;;;;31.90;21.00;;;;;;;0.70;100.00;98559.16;5055476;28;20212;-72
2023/01/26 01:52:12;;;;;;;34.03;21.30;;;;;;;0.84;100.00;98569.13;5057191;28;20256;-72
2023/01/26 01:54:40;;;;;;;32.23;20.30;;;;;;;0.92;100.00;98558.75;5056926;28;20203;-72
2023/01/26 01:57:16;;;;;;;32.40;21.40;;;;;;;0.80;100.00;98560.75;5056874;28;20211;-72
2023/01/26 01:59:46;;;;;;;38.17;22.70;;;;;;;0.71;100.00;98561.63;5056806;28;20266;-72
2023/01/26 02:02:13;;;;;;;36.40;22.37;;;;;;;0.74;100.00;98560.50;5056438;28;20716;-72
2023/01/26 02:04:41;;;;;;;38.60;21.60;;;;;;;0.50;100.00;98568.06;5055921;28;20205;-72
2023/01/26 02:07:10;;;;;;;37.10;23.47;;;;;;;0.50;100.00;98557.59;5057210;28;20205;-72
2023/01/26 02:12:30;;;;;;;36.43;22.70;;;;;;;0.52;100.00;98548.63;5056173;28;20767;-72
2023/01/26 02:14:58;;;;;;;39.27;23.30;;;;;;;0.45;100.00;98550.16;5056530;28;20189;-72
2023/01/26 02:17:24;;;;;;;36.37;21.77;;;;;;;0.45;100.00;98544.13;5056300;28;20208;-72
2023/01/26 02:20:07;;;;;;;37.70;22.43;;;;;;;0.51;100.00;98554.00;5056384;28;20228;-72
2023/01/26 02:22:56;;;;;;;35.67;21.23;;;;;;;0.56;100.00;98536.91;5056353;28;20257;-72
2023/01/26 02:25:40;;;;;;;34.13;21.33;;;;;;;0.54;100.00;98532.78;5056907;28;20194;-72
2023/01/26 02:28:06;;;;;;;31.63;20.23;;;;;;;0.69;100.00;98540.03;5055668;28;20189;-72
2023/01/26 02:30:32;;;;;;;32.30;20.93;;;;;;;0.65;100.00;98533.44;5056250;28;20209;-72
2023/01/26 02:32:59;;;;;;;33.37;22.33;;;;;;;0.50;100.00;98536.66;5056402;28;20221;-72
2023/01/26 02:35:25;;;;;;;37.07;21.90;;;;;;;0.61;100.00;98533.84;5055826;28;20206;-72
2023/01/26 02:37:52;;;;;;;37.97;21.80;;;;;;;0.54;100.00;98532.78;5056129;28;20231;-72
2023/01/26 02:40:21;;;;;;;38.43;22.97;;;;;;;0.52;100.00;98530.31;5055990;28;20229;-72
2023/01/26 02:42:46;;;;;;;34.70;21.27;;;;;;;0.64;100.00;98529.16;5056001;28;20221;-72
2023/01/26 02:45:15;;;;;;;35.57;21.00;;;;;;;0.72;100.00;98531.84;5055969;28;20251;-72
2023/01/26 02:47:43;;;;;;;32.47;21.03;;;;;;;0.70;100.00;98522.50;5055906;28;20679;-72
2023/01/26 02:50:09;;;;;;;35.33;20.77;;;;;;;0.71;100.00;98516.34;5055936;28;20206;-72
2023/01/26 02:52:36;;;;;;;35.40;21.07;;;;;;;0.64;100.00;98515.25;5056066;28;20773;-72
2023/01/26 02:57:46;;;;;;;36.70;22.57;;;;;;;0.52;100.00;98514.63;5055826;28;20623;-72
2023/01/26 03:00:21;;;;;;;32.27;19.53;;;;;;;0.68;100.00;98511.38;5055595;28;20229;-72
2023/01/26 03:02:50;;;;;;;33.57;20.40;;;;;;;0.68;100.00;98511.38;5055638;28;20232;-72
2023/01/26 03:05:17;;;;;;;35.50;20.70;;;;;;;0.63;100.00;98511.00;5055628;28;20207;-72
2023/01/26 03:07:44;;;;;;;36.63;20.50;;;;;;;0.58;100.00;98511.41;5055237;28;20213;-72
2023/01/26 03:10:11;;;;;;;34.30;20.90;;;;;;;0.56;100.00;98509.91;5055694;28;20201;-72
2023/01/26 03:12:37;;;;;;;31.47;20.03;;;;;;;0.63;100.00;98511.00;5055164;28;20240;-72
2023/01/26 03:17:49;;;;;;;30.63;17.47;;;;;;;0.53;100.00;98502.38;5055332;28;20168;-72
2023/01/26 03:28:27;;;;;;;32.07;18.23;;;;;;;0.45;100.00;98483.97;5055447;28;20724;-72
2023/01/26 03:30:56;;;;;;;33.90;19.67;;;;;;;0.36;100.00;98485.66;5054852;28;20251;-72
2023/01/26 03:33:23;;;;;;;32.50;18.93;;;;;;;0.36;100.00;98480.41;5055057;28;20209;-72
2023/01/26 03:35:53;;;;;;;26.67;17.70;;;;;;;0.44;100.00;98475.28;5055040;28;20542;-72
2023/01/26 03:38:20;;;;;;;31.33;18.17;;;;;;;0.41;100.00;98474.75;5054011;28;20645;-72
2023/01/26 03:57:10;;;;;;;28.77;17.93;;;;;;;0.39;100.00;98477.53;5054631;28;20303;-72
2023/01/26 03:59:39;;;;;;;31.40;17.97;;;;;;;0.39;100.00;98477.53;5054367;28;20217;-72
2023/01/26 04:10:20;;;;;;;21.50;14.57;;;;;;;0.56;100.00;98489.00;5054099;28;20670;-72
2023/01/26 04:23:46;;;;;;;25.50;15.73;;;;;;;0.45;100.00;98483.97;5053867;28;20172;-72
2023/01/26 04:26:13;;;;;;;28.27;17.23;;;;;;;0.21;100.00;98484.47;5053704;28;20687;-72
2023/01/26 04:28:39;;;;;;;32.10;18.60;;;;;;;0.22;100.00;98493.16;5053897;28;20209;-72
2023/01/26 04:31:05;;;;;;;27.73;15.63;;;;;;;0.32;100.00;98482.50;5053781;28;20200;-72
2023/01/26 04:33:32;;;;;;;28.53;16.33;;;;;;;0.28;100.00;98482.13;5053402;28;20660;-72
2023/01/26 04:36:03;;;;;;;27.63;16.93;;;;;;;0.19;100.00;98482.00;5053346;28;20210;-72
2023/01/26 04:38:30;;;;;;;28.13;16.67;;;;;;;0.26;100.00;98477.03;5053315;28;20651;-72
2023/01/26 04:40:56;;;;;;;26.00;16.20;;;;;;;0.14;100.00;98473.78;5053481;28;20229;-71
2023/01/26 04:43:23;;;;;;;27.20;16.63;;;;;;;0.14;100.00;98463.31;5053565;28;20438;-72
2023/01/26 04:46:05;;;;;;;30.53;18.10;;;;;;;0.13;100.00;98461.69;5053419;28;20434;-72
2023/01/26 04:48:32;;;;;;;27.47;16.83;;;;;;;0.22;100.00;98460.81;5053309;28;20189;-72
2023/01/26 04:51:01;;;;;;;28.37;17.53;;;;;;;0.19;100.00;98460.28;5053210;28;20201;-72
2023/01/26 04:53:28;;;;;;;28.10;16.47;;;;;;;0.21;100.00;98457.53;5053334;28;20688;-72
2023/01/26 04:55:55;;;;;;;31.03;17.93;;;;;;;0.19;100.00;98458.47;5053704;28;20561;-72
2023/01/26 04:58:22;;;;;;;28.47;17.93;;;;;;;0.11;100.00;98452.34;5053480;28;20573;-72
2023/01/26 05:00:56;;;;;;;36.70;18.83;;;;;;;0.08;100.00;98453.44;5053522;28;20270;-72
2023/01/26 05:03:23;;;;;;;29.47;17.60;;;;;;;0.22;100.00;98462.59;5053237;28;20546;-72
2023/01/26 05:05:52;;;;;;;28.33;18.07;;;;;;;0.12;100.00;98459.19;5052802;28;20446;-72
2023/01/26 05:08:19;;;;;;;28.30;18.10;;;;;;;0.09;100.00;98455.09;5053185;28;20204;-72
2023/01/26 05:10:46;;;;;;;30.07;18.63;;;;;;;0.10;100.00;98459.34;5053575;28;20437;-72
2023/01/26 05:13:13;;;;;;;35.20;20.07;;;;;;;0.07;100.00;98450.97;5052879;28;20669;-72
2023/01/26 05:15:40;;;;;;;27.57;18.17;;;;;;;0.09;100.00;98459.47;5053199;28;20445;-72
2023/01/26 05:18:07;;;;;;;27.00;17.27;;;;;;;0.04;100.00;98449.47;5053308;28;20464;-72
2023/01/26 05:20:33;;;;;;;28.17;18.03;;;;;;;0.07;100.00;98453.59;5053361;28;20229;-72
2023/01/26 05:22:59;;;;;;;29.03;16.53;;;;;;;0.01;100.00;98454.97;5052791;28;20236;-72
2023/01/26 05:25:26;;;;;;;23.73;14.93;;;;;;;0.05;100.00;98452.91;5053850;28;20205;-72
2023/01/26 05:27:52;;;;;;;25.47;16.17;;;;;;;0.02;100.00;98455.81;5052797;28;20213;-72
2023/01/26 05:30:19;;;;;;;27.73;17.70;;;;;;;-0.02;100.00;98459.66;5052673;28;20235;-72
2023/01/26 05:32:45;;;;;;;27.27;16.50;;;;;;;-0.05;100.00;98463.41;5052818;28;20247;-72
2023/01/26 05:35:11;;;;;;;27.97;17.17;;;;;;;-0.05;100.00;98466.00;5052796;28;20441;-72
2023/01/26 05:37:38;;;;;;;29.60;17.50;;;;;;;-0.07;100.00;98461.91;5052863;28;20434;-72
2023/01/26 05:40:05;;;;;;;27.17;16.43;;;;;;;-0.07;100.00;98457.50;5052528;28;20445;-72
2023/01/26 05:42:31;;;;;;;23.90;15.00;;;;;;;-0.12;100.00;98464.13;5052444;28;20247;-72
2023/01/26 05:44:57;;;;;;;26.53;16.67;;;;;;;-0.12;100.00;98462.31;5052335;28;20450;-72
2023/01/26 05:47:24;;;;;;;29.70;17.93;;;;;;;-0.17;100.00;98461.91;5052426;28;20442;-72
2023/01/26 05:49:50;;;;;;;26.27;16.90;;;;;;;-0.10;100.00;98472.63;5052653;28;20434;-72
2023/01/26 05:52:19;;;;;;;24.67;16.50;;;;;;;-0.13;100.00;98467.69;5052122;28;20554;-72
2023/01/26 05:54:46;;;;;;;30.70;16.50;;;;;;;-0.22;100.00;98471.97;5052936;28;20434;-72
2023/01/26 05:57:15;;;;;;;27.80;17.13;;;;;;;-0.13;100.00;98465.09;5052497;28;20445;-72
2023/01/26 05:59:42;;;;;;;22.47;15.33;;;;;;;-0.09;100.00;98469.88;5052256;28;20904;-72
2023/01/26 06:02:11;;;;;;;24.63;15.47;;;;;;;-0.06;100.00;98466.16;5053404;28;20992;-72
2023/01/26 06:04:37;;;;;;;27.80;17.23;;;;;;;-0.22;100.00;98464.13;5055172;28;20442;-72
2023/01/26 06:07:04;;;;;;;25.90;16.83;;;;;;;-0.19;100.00;98469.09;5056499;28;20213;-72
2023/01/26 06:09:30;;;;;;;22.27;14.90;;;;;;;-0.21;100.00;98470.19;5056323;28;20440;-72
2023/01/26 06:11:56;;;;;;;22.90;14.97;;;;;;;-0.26;100.00;98475.03;5055877;28;20229;-72
2023/01/26 06:14:23;;;;;;;27.63;16.47;;;;;;;-0.22;100.00;98469.34;5056204;28;20430;-72
2023/01/26 06:16:51;;;;;;;25.33;14.70;;;;;;;-0.20;100.00;98469.22;5055672;28;20433;-72
2023/01/26 06:19:18;;;;;;;23.83;14.40;;;;;;;-0.23;100.00;98470.34;5055789;28;20441;-72
2023/01/26 06:21:44;;;;;;;22.80;14.07;;;;;;;-0.32;100.00;98480.78;5055378;28;20486;-72
2023/01/26 06:24:10;;;;;;;25.00;14.97;;;;;;;-0.25;100.00;98476.66;5055655;28;20446;-72
2023/01/26 06:26:37;;;;;;;23.80;14.93;;;;;;;-0.34;100.00;98480.97;5055228;28;20449;-72
2023/01/26 06:29:03;;;;;;;25.17;16.77;;;;;;;-0.35;100.00;98478.47;5055115;28;20450;-72
2023/01/26 06:31:29;;;;;;;27.93;17.30;;;;;;;-0.27;100.00;98466.34;5055276;28;20808;-72
2023/01/26 06:33:56;;;;;;;26.50;17.40;;;;;;;-0.34;100.00;98477.50;5055471;28;20446;-72
2023/01/26 06:36:22;;;;;;;29.03;16.70;;;;;;;-0.26;100.00;98478.44;5055173;28;20960;-72
2023/01/26 06:38:51;;;;;;;27.97;17.00;;;;;;;-0.28;100.00;98466.50;5055286;28;20461;-72
2023/01/26 06:41:18;;;;;;;27.40;16.57;;;;;;;-0.27;100.00;98473.38;5054946;28;20691;-72
2023/01/26 06:43:47;;;;;;;29.73;18.30;;;;;;;-0.31;100.00;98482.47;5055051;28;20438;-72
2023/01/26 06:46:13;;;;;;;28.47;17.87;;;;;;;-0.33;100.00;98474.75;5055410;28;20440;-72
2023/01/26 06:48:40;;;;;;;28.27;16.77;;;;;;;-0.36;100.00;98477.66;5055275;28;20207;-72
2023/01/26 06:51:16;;;;;;;25.40;17.43;;;;;;;-0.42;100.00;98480.81;5054797;28;20905;-72
2023/01/26 06:53:52;;;;;;;23.63;16.33;;;;;;;-0.47;100.00;98477.81;5055077;28;20438;-72
2023/01/26 06:56:19;;;;;;;21.90;14.30;;;;;;;-0.34;100.00;98474.91;5054821;28;20430;-72
2023/01/26 06:58:46;;;;;;;24.73;16.43;;;;;;;-0.34;100.00;98477.50;5054988;28;20846;-72
2023/01/26 07:01:25;;;;;;;25.27;16.47;;;;;;;-0.32;100.00;98476.41;5054495;28;20478;-72
2023/01/26 07:03:54;;;;;;;24.90;16.83;;;;;;;-0.43;100.00;98478.34;5055235;28;20430;-73
2023/01/26 07:06:20;;;;;;;24.00;14.80;;;;;;;-0.27;100.00;98481.22;5054967;28;20898;-72
2023/01/26 07:08:47;;;;;;;24.77;15.30;;;;;;;-0.26;100.00;98475.81;5054663;28;20211;-72
2023/01/26 07:11:15;;;;;;;22.63;14.90;;;;;;;-0.30;100.00;98477.06;5054878;28;20209;-72
2023/01/26 07:13:42;;;;;;;24.63;16.00;;;;;;;-0.33;100.00;98481.75;5055360;28;20552;-72
2023/01/26 07:16:13;;;;;;;27.03;15.97;;;;;;;-0.38;100.00;98482.19;5054951;28;20452;-72
2023/01/26 07:18:40;;;;;;;24.03;15.60;;;;;;;-0.27;100.00;98491.66;5055072;28;20422;-72
2023/01/26 07:21:12;;;;;;;24.67;15.43;;;;;;;-0.26;100.00;98490.69;5054438;28;20482;-72
2023/01/26 07:23:38;;;;;;;24.97;15.50;;;;;;;-0.25;100.00;98494.94;5055035;28;20186;-72
2023/01/26 07:26:05;;;;;;;26.20;16.80;;;;;;;-0.28;100.00;98493.44;5054288;28;20213;-72
2023/01/26 07:28:38;;;;;;;26.17;17.00;;;;;;;-0.27;100.00;98497.69;5054205;28;20442;-72
2023/01/26 07:31:06;;;;;;;26.17;17.30;;;;;;;-0.17;100.00;98498.50;5054365;28;20441;-72
2023/01/26 07:33:33;;;;;;;26.50;16.43;;;;;;;-0.19;100.00;98502.22;5054440;28;20438;-72
2023/01/26 07:36:01;;;;;;;24.80;15.83;;;;;;;-0.25;100.00;98501.00;5054214;28;20471;-72
2023/01/26 07:38:28;;;;;;;22.03;15.23;;;;;;;-0.32;100.00;98492.06;5054046;28;20476;-72
2023/01/26 07:40:54;;;;;;;23.87;16.07;;;;;;;-0.21;100.00;98501.53;5054303;28;20209;-72
2023/01/26 07:43:21;;;;;;;24.97;15.90;;;;;;;-0.17;100.00;98493.28;5053676;28;20275;-72
2023/01/26 07:45:52;;;;;;;23.27;15.97;;;;;;;-0.26;100.00;98494.13;5054356;28;20216;-72
2023/01/26 07:48:20;;;;;;;25.37;15.97;;;;;;;-0.31;100.00;98492.91;5054386;28;20200;-73
2023/01/26 07:50:48;;;;;;;26.60;16.43;;;;;;;-0.32;100.00;98499.06;5054074;28;20202;-72
2023/01/26 07:53:18;;;;;;;22.70;16.13;;;;;;;-0.27;100.00;98491.66;5054058;28;20252;-73
2023/01/26 07:55:45;;;;;;;24.00;16.47;;;;;;;-0.34;100.00;98493.19;5053940;28;20767;-73
2023/01/26 07:58:12;;;;;;;24.60;16.60;;;;;;;-0.27;100.00;98492.47;5053963;28;20445;-73
2023/01/26 08:00:39;;;;;;;24.90;14.93;;;;;;;-0.38;100.00;98499.66;5053865;28;20446;-72
2023/01/26 08:03:05;;;;;;;24.97;16.10;;;;;;;-0.33;100.00;98487.81;5053334;28;20490;-72
2023/01/26 08:05:32;;;;;;;27.07;17.03;;;;;;;-0.32;100.00;98491.25;5053764;28;20807;-73
2023/01/26 08:07:59;;;;;;;25.43;16.33;;;;;;;-0.25;100.00;98493.19;5053665;28;20213;-73
2023/01/26 08:10:30;;;;;;;26.80;17.27;;;;;;;-0.21;100.00;98499.75;5054492;28;20227;-72
2023/01/26 08:12:58;;;;;;;22.50;14.80;;;;;;;-0.18;100.00;98499.47;5053395;28;20321;-72
2023/01/26 08:15:25;;;;;;;25.50;15.50;;;;;;;-0.15;100.00;98496.59;5053850;28;20212;-72
2023/01/26 08:17:52;;;;;;;20.17;12.87;;;;;;;-0.04;100.00;98495.59;5053951;28;20205;-73
2023/01/26 08:20:19;;;;;;;20.93;14.20;;;;;;;-0.21;100.00;98496.31;5053447;28;20660;-72
2023/01/26 08:22:45;;;;;;;21.93;14.03;;;;;;;-0.19;100.00;98497.81;5053501;28;20228;-73
2023/01/26 08:25:12;;;;;;;21.93;13.83;;;;;;;0.03;100.00;98495.84;5052547;28;20683;-73
2023/01/26 08:27:38;;;;;;;23.80;14.60;;;;;;;0.08;100.00;98488.41;5053549;28;20201;-72
2023/01/26 08:30:05;;;;;;;20.77;14.73;;;;;;;-0.06;100.00;98497.50;5053524;28;20202;-72
2023/01/26 08:32:31;;;;;;;21.27;14.07;;;;;;;-0.14;100.00;98484.31;5053430;28;20493;-73
2023/01/26 08:34:58;;;;;;;18.73;12.80;;;;;;;0.05;100.00;98486.91;5053120;28;20212;-73
2023/01/26 08:37:25;;;;;;;19.53;12.77;;;;;;;0.04;100.00;98475.59;5053999;28;20312;-73
2023/01/26 08:39:51;;;;;;;23.00;14.87;;;;;;;-0.04;100.00;98477.31;5053466;28;20438;-73
2023/01/26 08:42:17;;;;;;;19.67;13.87;;;;;;;-0.16;100.00;98478.44;5053191;28;20503;-72
2023/01/26 08:44:44;;;;;;;20.57;14.33;;;;;;;-0.09;100.00;98477.72;5053236;28;20430;-72
2023/01/26 08:47:10;;;;;;;19.67;12.80;;;;;;;0.02;100.00;98481.94;5053084;28;20201;-72
2023/01/26 08:49:36;;;;;;;20.50;14.90;;;;;;;0.03;100.00;98483.59;5053182;28;20442;-73
2023/01/26 08:52:03;;;;;;;20.53;12.90;;;;;;;0.08;100.00;98474.34;5053732;28;20226;-73
2023/01/26 08:54:30;;;;;;;22.63;14.17;;;;;;;0.00;100.00;98479.47;5052790;28;20442;-72
2023/01/26 08:56:57;;;;;;;24.43;15.43;;;;;;;-0.03;100.00;98484.16;5052609;28;20664;-73
2023/01/26 08:59:24;;;;;;;22.57;14.27;;;;;;;0.03;100.00;98480.16;5053100;28;20449;-72
2023/01/26 09:01:50;;;;;;;20.77;14.13;;;;;;;-0.02;100.00;98478.81;5053115;28;20478;-72
2023/01/26 09:04:17;;;;;;;26.23;14.60;;;;;;;-0.13;100.00;98480.75;5053236;28;20441;-72
2023/01/26 09:06:43;;;;;;;23.27;14.50;;;;;;;-0.07;100.00;98475.81;5053075;28;20450;-73
2023/01/26 09:09:12;;;;;;;20.67;13.83;;;;;;;-0.01;100.00;98475.22;5053180;28;20450;-73
2023/01/26 09:11:39;;;;;;;19.17;12.90;;;;;;;-0.01;100.00;98475.22;5052920;28;20221;-72
2023/01/26 09:14:05;;;;;;;18.80;13.23;;;;;;;-0.01;100.00;98469.16;5053083;28;20430;-72
2023/01/26 09:16:31;;;;;;;20.60;13.00;;;;;;;0.00;100.00;98474.25;5052970;28;20445;-72
2023/01/26 09:18:58;;;;;;;21.40;13.90;;;;;;;-0.02;100.00;98467.50;5052775;28;20449;-72
2023/01/26 09:21:24;;;;;;;20.43;13.23;;;;;;;-0.12;100.00;98472.75;5052833;28;20221;-72
2023/01/26 09:23:51;;;;;;;19.20;13.00;;;;;;;-0.08;100.00;98476.75;5052970;28;20438;-72
2023/01/26 09:26:17;;;;;;;18.00;12.83;;;;;;;0.05;100.00;98473.84;5052460;28;20448;-72
2023/01/26 09:28:44;;;;;;;19.60;12.80;;;;;;;0.14;100.00;98480.81;5052659;28;20209;-72
2023/01/26 09:31:12;;;;;;;19.40;12.00;;;;;;;0.18;100.00;98484.75;5053160;28;20449;-73
2023/01/26 09:33:39;;;;;;;16.07;11.50;;;;;;;0.08;100.00;98478.75;5052949;28;20448;-72
2023/01/26 09:36:08;;;;;;;14.80;10.87;;;;;;;0.31;100.00;98489.69;5052169;28;20540;-72
2023/01/26 09:38:34;;;;;;;17.53;10.97;;;;;;;0.22;100.00;98490.53;5056196;28;20441;-72
2023/01/26 09:41:09;;;;;;;15.93;10.30;;;;;;;0.09;100.00;98490.84;5056247;28;20438;-72
2023/01/26 09:43:50;;;;;;;16.60;11.17;;;;;;;-0.01;100.00;98484.84;5056579;28;20466;-72
2023/01/26 09:46:24;;;;;;;16.23;10.90;;;;;;;-0.06;100.00;98502.72;5056646;28;20422;-72
2023/01/26 09:48:53;;;;;;;14.47;10.70;;;;;;;-0.03;100.00;98503.25;5056474;28;20427;-72
2023/01/26 09:51:36;;;;;;;18.73;10.50;;;;;;;-0.14;100.00;98490.38;5056453;28;20480;-72
2023/01/26 09:54:14;;;;;;;17.53;11.23;;;;;;;-0.07;100.00;98496.69;5055588;28;20429;-72
2023/01/26 09:56:41;;;;;;;15.03;10.73;;;;;;;-0.18;100.00;98501.28;5055306;28;20422;-72
2023/01/26 09:59:45;;;;;;;16.33;10.50;;;;;;;-0.26;100.00;98493.31;5055968;28;20442;-72
2023/01/26 10:02:33;;;;;;;17.33;10.90;;;;;;;-0.03;100.00;98487.59;5044890;28;20489;-72
2023/01/26 10:05:04;;;;;;;14.73;10.80;;;;;;;0.05;100.00;98486.91;5056576;28;20429;-72
2023/01/26 10:07:31;;;;;;;13.03;8.83;;;;;;;0.08;100.00;98484.81;5055070;28;20758;-72
2023/01/26 10:09:57;;;;;;;13.40;8.77;;;;;;;0.08;100.00;98491.03;5056196;28;20444;-72
2023/01/26 10:12:34;;;;;;;16.87;9.13;;;;;;;0.15;100.00;98493.72;5055856;28;20474;-72
2023/01/26 10:15:03;;;;;;;14.00;9.67;;;;;;;0.33;100.00;98494.59;5056490;28;20185;-72
2023/01/26 10:17:42;;;;;;;12.53;9.33;;;;;;;0.28;100.00;98489.97;5056047;28;20817;-72
2023/01/26 10:20:15;;;;;;;12.50;8.77;;;;;;;0.24;100.00;98482.41;5055812;28;20434;-72
2023/01/26 10:22:47;;;;;;;13.67;9.07;;;;;;;0.28;100.00;98489.00;5055760;28;20240;-72
2023/01/26 10:25:17;;;;;;;12.40;8.30;;;;;;;0.27;100.00;98478.66;5055843;28;20205;-72
2023/01/26 10:27:45;;;;;;;11.87;8.73;;;;;;;0.51;100.00;98481.59;5055470;28;20462;-72
2023/01/26 10:30:17;;;;;;;11.43;8.47;;;;;;;0.35;100.00;98480.59;5055527;28;20235;-72
2023/01/26 10:32:45;;;;;;;11.13;7.87;;;;;;;0.32;100.00;98479.09;5055492;28;20465;-72
2023/01/26 10:35:18;;;;;;;11.10;8.40;;;;;;;0.35;100.00;98486.63;5055704;28;20209;-72
2023/01/26 10:37:45;;;;;;;9.77;7.67;;;;;;;0.44;100.00;98482.34;5055578;28;20223;-72
2023/01/26 10:40:12;;;;;;;10.10;7.57;;;;;;;0.43;100.00;98488.50;5055601;28;20209;-72
2023/01/26 10:42:39;;;;;;;11.00;7.77;;;;;;;0.45;100.00;98494.44;5055509;28;20231;-72
2023/01/26 10:45:33;;;;;;;10.00;7.00;;;;;;;0.30;100.00;98498.50;5055457;28;20201;-72
2023/01/26 10:48:06;;;;;;;10.27;7.20;;;;;;;0.13;100.00;98486.19;5054968;28;20557;-72
2023/01/26 10:50:33;;;;;;;11.83;8.57;;;;;;;0.21;100.00;98494.94;5055166;28;20255;-72
2023/01/26 10:53:01;;;;;;;12.97;9.00;;;;;;;0.22;100.00;98486.13;5055347;28;20480;-72
2023/01/26 10:55:29;;;;;;;11.67;8.53;;;;;;;-0.13;100.00;98476.34;5055065;28;20444;-72
2023/01/26 10:57:55;;;;;;;12.40;8.40;;;;;;;-0.19;100.00;98494.38;5055237;28;20434;-72
2023/01/26 11:00:23;;;;;;;13.07;8.50;;;;;;;-0.07;100.00;98478.41;5055417;28;20431;-72
2023/01/26 11:02:53;;;;;;;12.97;9.03;;;;;;;-0.04;100.00;98482.53;5054857;28;20510;-72
2023/01/26 11:05:20;;;;;;;12.40;9.00;;;;;;;0.05;100.00;98479.88;5054757;28;20205;-72
2023/01/26 11:07:49;;;;;;;12.10;8.47;;;;;;;-0.02;100.00;98476.19;5054937;28;20450;-72
2023/01/26 11:10:23;;;;;;;12.63;8.47;;;;;;;0.08;100.00;98472.72;5054895;28;20205;-72
2023/01/26 11:12:50;;;;;;;14.00;9.53;;;;;;;0.02;100.00;98471.50;5054408;28;20737;-72
2023/01/26 11:15:20;;;;;;;15.07;9.00;;;;;;;-0.02;100.00;98475.34;5054626;28;20219;-72
2023/01/26 11:18:26;;;;;;;13.70;9.50;;;;;;;-0.17;100.00;98469.75;5054806;28;20209;-72
2023/01/26 11:21:21;;;;;;;12.83;8.77;;;;;;;0.03;100.00;98469.72;5046433;28;20446;-72
2023/01/26 11:24:09;;;;;;;15.53;8.37;;;;;;;-0.05;100.00;98458.19;5054774;28;20462;-72
2023/01/26 11:27:00;;;;;;;14.20;8.13;;;;;;;-0.15;100.00;98460.00;5054721;28;20422;-72
2023/01/26 11:29:50;;;;;;;11.93;8.00;;;;;;;-0.19;100.00;98463.03;5055115;28;20434;-72
2023/01/26 11:32:47;;;;;;;15.70;8.93;;;;;;;-0.09;100.00;98458.63;5054397;28;20458;-72
2023/01/26 11:35:23;;;;;;;13.20;8.80;;;;;;;-0.19;100.00;98455.19;5054414;28;20448;-72
2023/01/26 11:37:55;;;;;;;14.73;9.10;;;;;;;-0.10;100.00;98454.34;5054312;28;20433;-72
2023/01/26 11:40:40;;;;;;;11.37;7.97;;;;;;;-0.05;100.00;98452.94;5054306;28;20450;-72
2023/01/26 11:43:18;;;;;;;13.30;9.00;;;;;;;-0.06;100.00;98446.06;5054263;28;20486;-72
2023/01/26 11:46:11;;;;;;;12.27;8.43;;;;;;;-0.09;100.00;98446.34;5054047;28;20960;-72
2023/01/26 11:48:50;;;;;;;13.37;8.53;;;;;;;-0.13;100.00;98438.97;5054250;28;20452;-72
2023/01/26 11:51:54;;;;;;;18.87;9.90;;;;;;;-0.04;100.00;98446.75;5054140;28;21046;-72
2023/01/26 11:54:31;;;;;;;14.43;8.90;;;;;;;-0.03;100.00;98437.13;5012064;28;20207;-72
2023/01/26 11:57:08;;;;;;;12.30;7.60;;;;;;;-0.01;100.00;98433.41;5047627;28;20453;-72
2023/01/26 11:59:39;;;;;;;10.97;7.43;;;;;;;-0.06;100.00;98433.00;5053176;28;20467;-72
2023/01/26 12:02:18;;;;;;;12.70;7.90;;;;;;;0.03;100.00;98431.31;5053939;28;20458;-72
2023/01/26 12:04:46;;;;;;;11.70;7.53;;;;;;;0.08;100.00;98421.25;5053982;28;20448;-72
2023/01/26 12:07:21;;;;;;;10.97;6.90;;;;;;;0.08;100.00;98422.09;5053916;28;20452;-72
2023/01/26 12:09:51;;;;;;;14.10;7.70;;;;;;;0.03;100.00;98422.66;5054006;28;20770;-72
2023/01/26 12:12:26;;;;;;;18.70;8.67;;;;;;;-0.06;100.00;98424.34;5053875;28;20465;-72
2023/01/26 12:14:55;;;;;;;13.33;7.67;;;;;;;0.12;100.00;98412.16;5054031;28;20426;-72
2023/01/26 12:17:47;;;;;;;13.00;7.40;;;;;;;0.12;100.00;98411.34;5053739;28;20438;-72